Home > Products > Valid Products > TAF

000
FTUS42 KGSP 310800 AAA
TAFCLT
TAF AMD
KCLT 310847Z 3109/0106 00000KT P6SM SCT050
     FM311400 13005KT P6SM BKN045
     FM010000 06004KT P6SM OVC027 PROB30 0100/0104 4SM TSRA OVC017CB
     FM010400 05005KT P6SM OVC050=



000
FTUS42 KGSP 310800 AAA
TAFCLT
TAF AMD
KCLT 310847Z 3109/0106 00000KT P6SM SCT050
     FM311400 13005KT P6SM BKN045
     FM010000 06004KT P6SM OVC027 PROB30 0100/0104 4SM TSRA OVC017CB
     FM010400 05005KT P6SM OVC050=



000
FTUS42 KGSP 310500
TAFAVL
TAF
KAVL 310534Z 3106/0106 00000KT P6SM SCT060
      TEMPO 3108/3112 5SM BR BKN025
     FM311200 00000KT P6SM BKN020
     FM311800 16005KT P6SM VCTS BKN035CB
     FM312300 16004KT P6SM -SHRA VCTS BKN012 OVC020CB
     FM010400 00000KT 6SM -SHRA BR OVC008=



000
FTUS42 KGSP 310500
TAFGSP
TAF
KGSP 310534Z 3106/0106 04003KT P6SM BKN070
     FM311100 04004KT P6SM VCSH BKN025
     FM311600 08005KT P6SM VCTS BKN045CB
     FM312300 06006KT P6SM VCTS OVC024CB=



000
FTUS42 KGSP 310500
TAFCLT
TAF
KCLT 310534Z 3106/0106 00000KT P6SM BKN070
     FM311400 10004KT P6SM BKN025
     FM311600 13005KT P6SM BKN045
     FM010000 06004KT P6SM OVC027 PROB30 0100/0104 4SM TSRA OVC017CB
     FM010400 05005KT P6SM OVC050=



000
FTUS42 KGSP 310500
TAFCLT
TAF
KCLT 310534Z 3106/0106 00000KT P6SM BKN070
     FM311400 10004KT P6SM BKN025
     FM311600 13005KT P6SM BKN045
     FM010000 06004KT P6SM OVC027 PROB30 0100/0104 4SM TSRA OVC017CB
     FM010400 05005KT P6SM OVC050=



000
FTUS42 KGSP 310500
TAFAVL
TAF
KAVL 310534Z 3106/0106 00000KT P6SM SCT060
      TEMPO 3108/3112 5SM BR BKN025
     FM311200 00000KT P6SM BKN020
     FM311800 16005KT P6SM VCTS BKN035CB
     FM312300 16004KT P6SM -SHRA VCTS BKN012 OVC020CB
     FM010400 00000KT 6SM -SHRA BR OVC008=



000
FTUS42 KGSP 302300
TAFAVL
TAF
KAVL 302339Z 3100/3124 VRB03KT P6SM BKN050
     FM310200 00000KT P6SM SCT060
     FM310900 00000KT 4SM BR BKN050
     FM311200 14004KT P6SM BKN040 OVC050=



000
FTUS42 KGSP 302300
TAFCLT
TAF
KCLT 302339Z 3100/3124 34003KT P6SM FEW060 SCT090
     FM310700 00000KT P6SM SCT050
     FM311100 05003KT P6SM BKN040
     FM311500 13003KT P6SM SCT045 BKN050=



000
FTUS42 KGSP 302300
TAFCLT
TAF
KCLT 302339Z 3100/3124 34003KT P6SM FEW060 SCT090
     FM310700 00000KT P6SM SCT050
     FM311100 05003KT P6SM BKN040
     FM311500 13003KT P6SM SCT045 BKN050=



000
FTUS42 KGSP 302300
TAFAVL
TAF
KAVL 302339Z 3100/3124 VRB03KT P6SM BKN050
     FM310200 00000KT P6SM SCT060
     FM310900 00000KT 4SM BR BKN050
     FM311200 14004KT P6SM BKN040 OVC050=



000
FTUS42 KGSP 302300
TAFGSP
TAF
KGSP 302339Z 3100/3124 05003KT P6SM BKN250
     FM310500 00000KT P6SM SCT050
     FM310900 04003KT P6SM SCT035 BKN045
     FM311400 08004KT P6SM BKN045=



000
FTUS42 KGSP 302000 AAA
TAFCLT
TAF AMD
KCLT 302057Z 3021/3118 34003KT P6SM BKN050
     FM302300 VRB03KT P6SM SCT050
     FM310800 00000KT P6SM BKN045=



000
FTUS42 KGSP 302000 AAA
TAFCLT
TAF AMD
KCLT 302057Z 3021/3118 34003KT P6SM BKN050
     FM302300 VRB03KT P6SM SCT050
     FM310800 00000KT P6SM BKN045=



000
FTUS42 KGSP 301700
TAFCLT
TAF
KCLT 301728Z 3018/3118 04003KT P6SM SCT060
     FM302000 34003KT P6SM BKN050
     FM302300 VRB03KT P6SM SCT050
     FM310800 00000KT P6SM BKN045=



000
FTUS42 KGSP 301700
TAFAVL
TAF
KAVL 301728Z 3018/3118 34003KT P6SM SCT045
     FM302000 34004KT P6SM BKN045
     FM310100 00000KT P6SM BKN060
     FM311100 00000KT 4SM BR BKN060
     FM311300 00000KT P6SM BKN060=



000
FTUS42 KGSP 301700
TAFCLT
TAF
KCLT 301728Z 3018/3118 04003KT P6SM SCT060
     FM302000 34003KT P6SM BKN050
     FM302300 VRB03KT P6SM SCT050
     FM310800 00000KT P6SM BKN045=



000
FTUS42 KGSP 301700
TAFGSP
TAF
KGSP 301728Z 3018/3118 06003KT P6SM SCT050
     FM310800 02003KT P6SM BKN045
     FM311600 08005KT P6SM BKN060=



000
FTUS42 KGSP 301700
TAFAVL
TAF
KAVL 301728Z 3018/3118 34003KT P6SM SCT045
     FM302000 34004KT P6SM BKN045
     FM310100 00000KT P6SM BKN060
     FM311100 00000KT 4SM BR BKN060
     FM311300 00000KT P6SM BKN060=



000
FTUS42 KGSP 301500 AAB
TAFCLT
TAF AMD
KCLT 301530Z 3016/3112 01008KT P6SM FEW060
     FM301800 34006KT P6SM SCT060
     FM310200 07003KT P6SM SCT060 SCT100=



000
FTUS42 KGSP 301500 AAB
TAFCLT
TAF AMD
KCLT 301530Z 3016/3112 01008KT P6SM FEW060
     FM301800 34006KT P6SM SCT060
     FM310200 07003KT P6SM SCT060 SCT100=



000
FTUS42 KGSP 301400 AAA
TAFCLT
TAF AMD
KCLT 301403Z 3014/3112 02012G18KT P6SM SKC
     FM301600 34008KT P6SM SCT060
     FM302000 34004KT P6SM SCT060=



000
FTUS42 KGSP 301100
TAFCLT
TAF
KCLT 301122Z 3012/3112 01006KT P6SM SCT060
     FM302000 34004KT P6SM SCT060=



000
FTUS42 KGSP 301100
TAFAVL
TAF
KAVL 301122Z 3012/3112 34007KT P6SM SCT045
     FM310900 00000KT 5SM BR SCT045=



000
FTUS42 KGSP 301100
TAFGSP
TAF
KGSP 301122Z 3012/3112 03006KT P6SM SCT060=



000
FTUS42 KGSP 300900 AAA
TAFAVL
TAF AMD
KAVL 300953Z 3010/3106 35006KT P6SM SKC
     FM301200 33006KT P6SM FEW060=



000
FTUS42 KGSP 300900 AAA
TAFAVL
TAF AMD
KAVL 300953Z 3010/3106 35006KT P6SM SKC
     FM301200 33006KT P6SM FEW060=



000
FTUS42 KGSP 300800 AAA
TAFCLT
TAF AMD
KCLT 300838Z 3009/3106 01006KT P6SM FEW090
     FM302000 33003KT P6SM SCT060=



000
FTUS42 KGSP 300800 AAA
TAFCLT
TAF AMD
KCLT 300838Z 3009/3106 01006KT P6SM FEW090
     FM302000 33003KT P6SM SCT060=



000
FTUS42 KGSP 300500
TAFAVL
TAF
KAVL 300525Z 3006/3106 35006KT P6SM SKC
      TEMPO 3010/3012 5SM BR FEW007
     FM301200 33006KT P6SM FEW060=



000
FTUS42 KGSP 300500
TAFCLT
TAF
KCLT 300525Z 3006/3106 01006KT P6SM FEW060
     FM302000 33003KT P6SM SCT060=



000
FTUS42 KGSP 300500
TAFAVL
TAF
KAVL 300525Z 3006/3106 35006KT P6SM SKC
      TEMPO 3010/3012 5SM BR FEW007
     FM301200 33006KT P6SM FEW060=



000
FTUS42 KGSP 300500
TAFCLT
TAF
KCLT 300525Z 3006/3106 01006KT P6SM FEW060
     FM302000 33003KT P6SM SCT060=



000
FTUS42 KGSP 300500
TAFGSP
TAF
KGSP 300525Z 3006/3106 02007KT P6SM FEW060
     FM301800 03005KT P6SM SCT060=



000
FTUS42 KGSP 300100 AAA
TAFAVL
TAF AMD
KAVL 300151Z 3002/3024 34009KT P6SM FEW250
     FM300900 33004KT 5SM BR FEW250
     FM301200 32003KT P6SM FEW250=



000
FTUS42 KGSP 300100 AAA
TAFAVL
TAF AMD
KAVL 300151Z 3002/3024 34009KT P6SM FEW250
     FM300900 33004KT 5SM BR FEW250
     FM301200 32003KT P6SM FEW250=



000
FTUS42 KGSP 292300
TAFCLT
TAF
KCLT 292339Z 3000/3024 31004KT P6SM FEW070
     FM300200 01005KT P6SM FEW060
     FM301900 33004KT P6SM SCT060=



000
FTUS42 KGSP 292300
TAFCLT
TAF
KCLT 292339Z 3000/3024 31004KT P6SM FEW070
     FM300200 01005KT P6SM FEW060
     FM301900 33004KT P6SM SCT060=



000
FTUS42 KGSP 292300
TAFGSP
TAF
KGSP 292339Z 3000/3024 02005KT P6SM BKN070
     FM301100 01005KT P6SM FEW045
     FM302000 00000KT P6SM SCT250=



000
FTUS42 KGSP 292300
TAFAVL
TAF
KAVL 292339Z 3000/3024 34008KT P6SM BKN070
     FM300100 33007KT P6SM FEW250
     FM300700 33004KT 5SM BR FEW250
     FM301200 32003KT P6SM FEW250=



000
FTUS42 KGSP 292000 AAA
TAFCLT
TAF AMD
KCLT 292053Z 2921/3018 35004KT P6SM SCT070
     FM300300 01004KT P6SM SCT060=



000
FTUS42 KGSP 292000 AAA
TAFCLT
TAF AMD
KCLT 292053Z 2921/3018 35004KT P6SM SCT070
     FM300300 01004KT P6SM SCT060=



000
FTUS42 KGSP 291700
TAFCLT
TAF
KCLT 291728Z 2918/3018 32004KT P6SM BKN050
     FM292200 01004KT P6SM SCT050=



000
FTUS42 KGSP 291700
TAFGSP
TAF
KGSP 291728Z 2918/3018 28005KT P6SM BKN050
     FM300100 01005KT P6SM SCT050=



000
FTUS42 KGSP 291700
TAFAVL
TAF
KAVL 291728Z 2918/3018 36004KT P6SM BKN045
     FM292200 34005KT P6SM SCT045
     FM300800 00000KT 5SM BR FEW250
     FM301000 34003KT 3SM BR FEW250
     FM301300 34004KT P6SM FEW040=



000
FTUS42 KGSP 291700
TAFCLT
TAF
KCLT 291728Z 2918/3018 32004KT P6SM BKN050
     FM292200 01004KT P6SM SCT050=



000
FTUS42 KGSP 291700
TAFAVL
TAF
KAVL 291728Z 2918/3018 36004KT P6SM BKN045
     FM292200 34005KT P6SM SCT045
     FM300800 00000KT 5SM BR FEW250
     FM301000 34003KT 3SM BR FEW250
     FM301300 34004KT P6SM FEW040=



000
FTUS42 KGSP 291400 AAA
TAFCLT
TAF AMD
KCLT 291457Z 2915/3012 02004KT P6SM SKC
     FM291700 33006KT P6SM SCT050
     FM300100 01003KT P6SM FEW250=



000
FTUS42 KGSP 291400 AAA
TAFCLT
TAF AMD
KCLT 291457Z 2915/3012 02004KT P6SM SKC
     FM291700 33006KT P6SM SCT050
     FM300100 01003KT P6SM FEW250=



000
FTUS42 KGSP 291100
TAFGSP
TAF
KGSP 291131Z 2912/3012 04003KT P6SM SKC
     FM291600 32006KT P6SM SCT060
     FM292300 02003KT P6SM FEW080=



000
FTUS42 KGSP 291100
TAFAVL
TAF
KAVL 291131Z 2912/3012 34004KT P6SM SCT250
     FM291600 34009KT P6SM SCT035
     FM300200 34003KT P6SM FEW250=



000
FTUS42 KGSP 291100
TAFCLT
TAF
KCLT 291131Z 2912/3012 34004KT P6SM BKN090
     FM291700 33006KT P6SM SCT050
     FM300100 01003KT P6SM FEW250=



000
FTUS42 KGSP 291000 AAA
TAFAVL
TAF AMD
KAVL 291007Z 2910/3006 33004KT P6SM SCT250
     FM291600 33008KT P6SM FEW035
     FM300200 33003KT P6SM FEW250=



000
FTUS42 KGSP 291000 AAA
TAFAVL
TAF AMD
KAVL 291007Z 2910/3006 33004KT P6SM SCT250
     FM291600 33008KT P6SM FEW035
     FM300200 33003KT P6SM FEW250=



000
FTUS42 KGSP 290800 AAA
TAFCLT
TAF AMD
KCLT 290845Z 2909/3006 35006KT P6SM BKN090
     FM290900 36004KT P6SM FEW250
     FM291800 35005KT P6SM FEW060=



000
FTUS42 KGSP 290800 AAA
TAFCLT
TAF AMD
KCLT 290845Z 2909/3006 35006KT P6SM BKN090
     FM290900 36004KT P6SM FEW250
     FM291800 35005KT P6SM FEW060=



000
FTUS42 KGSP 290500
TAFAVL
TAF
KAVL 290521Z 2906/3006 33004KT P6SM SCT050
      TEMPO 2911/2913 4SM BR SCT010
     FM291300 33004KT P6SM SCT250
     FM291600 33008KT P6SM FEW035
     FM300200 33003KT P6SM FEW250=



000
FTUS42 KGSP 290500
TAFAVL
TAF
KAVL 290521Z 2906/3006 33004KT P6SM SCT050
      TEMPO 2911/2913 4SM BR SCT010
     FM291300 33004KT P6SM SCT250
     FM291600 33008KT P6SM FEW035
     FM300200 33003KT P6SM FEW250=



000
FTUS42 KGSP 290500
TAFCLT
TAF
KCLT 290521Z 2906/3006 35006KT P6SM BKN090
     FM290900 36004KT P6SM FEW250
     FM291800 35005KT P6SM FEW060=



000
FTUS42 KGSP 290500
TAFGSP
TAF
KGSP 290521Z 2906/3006 35003KT P6SM SKC
     FM291600 36003KT P6SM FEW060
     FM292000 35006KT P6SM SCT060=



000
FTUS42 KGSP 290500
TAFCLT
TAF
KCLT 290521Z 2906/3006 35006KT P6SM BKN090
     FM290900 36004KT P6SM FEW250
     FM291800 35005KT P6SM FEW060=



000
FTUS42 KGSP 290200 CCA
TAFAVL
TAF COR
KAVL 290240Z 2903/2924 34009G18KT P6SM SCT250
     FM290500 33005KT P6SM SCT250
     FM292000 33006KT P6SM FEW060=



000
FTUS42 KGSP 290200 CCA
TAFAVL
TAF COR
KAVL 290240Z 2903/2924 34009G18KT P6SM SCT250
     FM290500 33005KT P6SM SCT250
     FM292000 33006KT P6SM FEW060=



000
FTUS42 KGSP 290200 AAA
TAFAVL
TAF AMD
KAVL 290230Z 2903/2924 32009G18KT P6SM SCT250
     FM290500 33005KT P6SM SCT250
     FM292000 33006KT P6SM FEW060=



000
FTUS42 KGSP 290200 AAA
TAFAVL
TAF AMD
KAVL 290230Z 2903/2924 32009G18KT P6SM SCT250
     FM290500 33005KT P6SM SCT250
     FM292000 33006KT P6SM FEW060=



000
FTUS42 KGSP 282300
TAFCLT
TAF
KCLT 282333Z 2900/2924 32008KT P6SM FEW250
     FM290800 36004KT P6SM FEW250
     FM292000 35004KT P6SM FEW070=



000
FTUS42 KGSP 282300
TAFGSP
TAF
KGSP 282333Z 2900/2924 33008KT P6SM FEW250
     FM290700 35004KT P6SM FEW250=



000
FTUS42 KGSP 282300
TAFAVL
TAF
KAVL 282333Z 2900/2924 32009KT P6SM SCT250
     FM290400 33005KT P6SM SCT250
     FM292000 33006KT P6SM FEW060=



000
FTUS42 KGSP 282300
TAFCLT
TAF
KCLT 282333Z 2900/2924 32008KT P6SM FEW250
     FM290800 36004KT P6SM FEW250
     FM292000 35004KT P6SM FEW070=



000
FTUS42 KGSP 282300
TAFAVL
TAF
KAVL 282333Z 2900/2924 32009KT P6SM SCT250
     FM290400 33005KT P6SM SCT250
     FM292000 33006KT P6SM FEW060=



000
FTUS42 KGSP 282000 AAA
TAFCLT
TAF AMD
KCLT 282055Z 2821/2918 32010G18KT P6SM FEW060
     FM290000 32008KT P6SM FEW250
     FM290800 01004KT P6SM SCT250=



000
FTUS42 KGSP 282000 AAA
TAFCLT
TAF AMD
KCLT 282055Z 2821/2918 32010G18KT P6SM FEW060
     FM290000 32008KT P6SM FEW250
     FM290800 01004KT P6SM SCT250=



000
FTUS42 KGSP 281700
TAFAVL
TAF
KAVL 281724Z 2818/2918 34014G22KT P6SM FEW040
     FM282200 31012KT P6SM FEW045
     FM290000 32006KT P6SM SCT250=



000
FTUS42 KGSP 281700
TAFAVL
TAF
KAVL 281724Z 2818/2918 34014G22KT P6SM FEW040
     FM282200 31012KT P6SM FEW045
     FM290000 32006KT P6SM SCT250=



000
FTUS42 KGSP 281700
TAFCLT
TAF
KCLT 281724Z 2818/2918 29011G21KT P6SM SCT060
     FM282100 30012G18KT P6SM FEW060
     FM290000 32008KT P6SM FEW250
     FM290800 01004KT P6SM SCT250=



000
FTUS42 KGSP 281700
TAFGSP
TAF
KGSP 281724Z 2818/2918 29013G18KT P6SM FEW050
     FM282200 32009KT P6SM FEW250
     FM290600 35005KT P6SM FEW250=



000
FTUS42 KGSP 281700
TAFCLT
TAF
KCLT 281724Z 2818/2918 29011G21KT P6SM SCT060
     FM282100 30012G18KT P6SM FEW060
     FM290000 32008KT P6SM FEW250
     FM290800 01004KT P6SM SCT250=



000
FTUS42 KGSP 281500 AAA
TAFCLT
TAF AMD
KCLT 281508Z 2815/2912 26008KT P6SM SKC
     FM281700 29011G21KT P6SM FEW060 SCT250
     FM290400 33007KT P6SM FEW250=



000
FTUS42 KGSP 281100
TAFGSP
TAF
KGSP 281122Z 2812/2912 24003KT P6SM SKC
     FM281600 28012G20KT P6SM FEW060 SCT250
     FM282300 32009KT P6SM FEW250
     FM290300 00000KT P6SM FEW250=



000
FTUS42 KGSP 281100
TAFAVL
TAF
KAVL 281122Z 2812/2912 35011KT P6SM SCT120
     FM281500 34014G22KT P6SM SCT120
     FM281700 34015G24KT P6SM FEW045 SCT250
     FM290000 34009KT P6SM SCT250
     FM290300 00000KT P6SM SCT040
     FM290900 00000KT 5SM BR SCT009=



000
FTUS42 KGSP 281100
TAFCLT
TAF
KCLT 281122Z 2812/2912 26004KT P6SM SCT100
     FM281600 30011G18KT P6SM FEW060 SCT250
     FM290400 33007KT P6SM FEW250=



000
FTUS42 KGSP 281100
TAFCLT
TAF
KCLT 281122Z 2812/2912 26004KT P6SM SCT100
     FM281600 30011G18KT P6SM FEW060 SCT250
     FM290400 33007KT P6SM FEW250=



000
FTUS42 KGSP 281100
TAFAVL
TAF
KAVL 281122Z 2812/2912 35011KT P6SM SCT120
     FM281500 34014G22KT P6SM SCT120
     FM281700 34015G24KT P6SM FEW045 SCT250
     FM290000 34009KT P6SM SCT250
     FM290300 00000KT P6SM SCT040
     FM290900 00000KT 5SM BR SCT009=



000
FTUS42 KGSP 281000 AAC
TAFAVL
TAF AMD
KAVL 281012Z 2810/2906 32006KT P6SM SCT120
     FM281600 32014G25KT P6SM SCT250
     FM290000 32009KT P6SM SCT250
     FM290300 32007KT P6SM SCT040=



000
FTUS42 KGSP 281000 AAC
TAFAVL
TAF AMD
KAVL 281012Z 2810/2906 32006KT P6SM SCT120
     FM281600 32014G25KT P6SM SCT250
     FM290000 32009KT P6SM SCT250
     FM290300 32007KT P6SM SCT040=



    US Dept of Commerce
    National Oceanic and Atmospheric Administration
    National Weather Service
    1325 East West Highway
    Silver Spring, MD 20910
    Page Author: NWS Internet Services Team
Disclaimer
Information Quality
Credits
Glossary
Privacy Policy
Freedom of Information Act (FOIA)
About Us
Career Opportunities